Southeastern Grand Banks: Past 24 Hour Conditions

 

Banquereau - 44139

10:00 PM ADT 23 October 2018Buoy position: 44.27N 57.08W
Disclaimer

This table is a summary of hourly weather conditions for the past 24 hours.
Please note that these observations might not always be representative of weather conditions over their associated marine area.

Date / Time
(ADT)
Wind(knots) Wave height(m) Wave period(s) Pressure(kPa) Air tempC) Water tempC)
23 October 2018
22:00 E 4 gust 6 1.9 9.0 102.8 10 11
21:00 calm 2.0 10.0 102.8 10 10
20:00 S 2 gust 4 2.2 9.0 102.8 10 10
19:00 SSW 4 gust 6 2.2 9.0 102.8 10 10
18:00 SSW 4 gust 6 2.3 9.0 102.8 10 10
17:00 SW 6 gust 8 2.2 9.0 102.7 10 11
16:00 SW 6 gust 8 2.3 10.0 102.7 10 11
15:00 SW 6 gust 8 2.5 10.0 102.7 10 11
14:00 WSW 10 gust 12 2.5 10.0 102.7 10 11
13:00 WSW 12 gust 16 2.4 11.0 102.7 10 11
12:00 WSW 8 gust 12 2.5 10.0 102.7 10 11
11:00 WSW 10 gust 12 2.4 9.0 102.7 10 11
10:00 WSW 10 gust 14 2.6 9.0 102.7 10 11
9:00 W 8 gust 12 2.7 10.0 102.6 10 11
8:00 WSW 8 gust 12 2.7 10.0 102.6 9 11
7:00 W 8 gust 12 2.9 11.0 102.4 9 11
6:00 W 8 gust 10 2.9 8.0 102.4 9 11
5:00 WSW 12 gust 18 3.0 9.0 102.4 9 11
4:00 W 14 gust 18 3.4 10.0 102.3 9 11
3:00 WSW 14 gust 18 3.1 10.0 102.3 9 11
2:00 WSW 14 gust 18 3.2 8.0 102.2 9 11
1:00 WSW 16 gust 19 3.3 10.0 102.2 9 11
0:00 WSW 14 gust 18 3.5 7.0 102.2 8 11
22 October 2018
23:00 WSW 16 gust 18 3.7 12.0 102.1 8 11
22:00 W 21 gust 27 3.5 12.0 102.1 8 11

Zoom-in to make a selection

Map of Atlantic - Newfoundland marine weather areas Banquereau - 44139 Blanc-Sablon Airport Cap Whittle Chevery Natashquan Airport Heath Point Îles de la Madeleine Airport Miscou Island Eskasoni (First Nations) Grand Étang Ingonish Beach North Mountain St.Paul Island J.A. Douglas McCurdy Sydney Airport Charlottetown Airport East Point North Cape Argentia Bonavista Burgeo Cape Race Corner Brook Daniel's Harbour Englee Ferolle Point La Scie Port aux Basques Rocky Harbour Sagona Island St. Anthony Airport St. John's Int'l Airport St. Lawrence Stephenville Airport Twillingate Winterland Wreckhouse Grates Cove Pool's Island Marticot Island Long Pond Cartwright Airport Mary's Harbour
Legend:
buoy Buoy
land station Land Station

Atlantic - Newfoundland Area

Another Region

What we are doing

Date modified: